Time;durP1;ratioP1;P1;durP2;ratioP2;P2;SDS_P1;SDS_P2;PMS_P1;PMS_P2;Temp;Humidity;BMP_temperature;BMP_pressure;BME280_temperature;BME280_humidity;BME280_pressure;Samples;Min_cycle;Max_cycle;Signal;HPM_P1;HPM_P2
2024/01/27 00:00:13;;;;;;;33.72;3.45;;;;;;;8.57;72.81;102204.06;4947166;28;97229;-70
2024/01/27 00:02:40;;;;;;;19.92;2.95;;;;;;;8.95;71.02;102212.66;4951279;28;97281;-70
2024/01/27 00:05:08;;;;;;;21.50;2.38;;;;;;;8.88;70.17;102208.28;4950315;28;99336;-69
2024/01/27 00:07:34;;;;;;;31.58;4.07;;;;;;;9.26;68.79;102221.25;4952621;28;98953;-69
2024/01/27 00:10:02;;;;;;;28.83;3.63;;;;;;;9.40;68.13;102210.59;4952315;28;96855;-70
2024/01/27 00:12:28;;;;;;;32.40;3.10;;;;;;;9.02;68.91;102202.94;4952625;28;97028;-70
2024/01/27 00:14:55;;;;;;;27.15;3.55;;;;;;;9.02;69.02;102213.50;4950364;28;101578;-71
2024/01/27 00:17:23;;;;;;;31.45;3.13;;;;;;;8.93;68.88;102216.16;4948310;28;98797;-70
2024/01/27 00:19:50;;;;;;;22.13;2.88;;;;;;;8.54;70.54;102204.94;4948397;28;97162;-70
2024/01/27 00:22:18;;;;;;;21.33;2.85;;;;;;;8.91;69.47;102210.06;4951628;28;97034;-70
2024/01/27 00:24:44;;;;;;;20.75;3.35;;;;;;;8.49;70.65;102212.00;4946764;28;101556;-67
2024/01/27 00:27:10;;;;;;;22.80;3.10;;;;;;;8.18;71.28;102216.44;4950290;28;99048;-67
2024/01/27 00:29:36;;;;;;;17.23;2.72;;;;;;;8.24;71.57;102200.63;4948421;28;96886;-68
2024/01/27 00:32:03;;;;;;;28.65;3.30;;;;;;;8.29;71.71;102224.31;4949040;28;97674;-68
2024/01/27 00:34:30;;;;;;;16.27;3.13;;;;;;;8.23;71.64;102222.56;4948820;28;100506;-68
2024/01/27 00:36:56;;;;;;;22.00;2.92;;;;;;;8.42;70.49;102220.78;4950465;28;98870;-69
2024/01/27 00:39:24;;;;;;;20.48;2.60;;;;;;;8.88;68.61;102221.47;4950481;28;97230;-69
2024/01/27 00:41:52;;;;;;;27.08;3.40;;;;;;;8.26;70.65;102230.47;4955736;28;98320;-69
2024/01/27 00:44:18;;;;;;;20.83;3.15;;;;;;;8.31;70.12;102220.84;4949703;28;99082;-68
2024/01/27 00:46:45;;;;;;;22.48;2.60;;;;;;;8.16;70.68;102215.56;4955130;28;97622;-69
2024/01/27 00:49:11;;;;;;;18.08;3.10;;;;;;;8.78;68.53;102230.31;4953352;28;97341;-68
2024/01/27 00:51:37;;;;;;;15.02;2.72;;;;;;;8.69;68.27;102238.25;4951059;28;96736;-68
2024/01/27 00:54:04;;;;;;;27.70;3.45;;;;;;;8.73;67.91;102240.88;4946635;28;98937;-68
2024/01/27 00:56:31;;;;;;;17.58;2.40;;;;;;;8.70;67.29;102242.66;4956980;28;99188;-69
2024/01/27 00:58:58;;;;;;;21.55;2.92;;;;;;;8.73;67.32;102235.59;4953454;28;96748;-69
2024/01/27 01:01:24;;;;;;;24.65;3.65;;;;;;;8.67;67.98;102251.44;4952052;28;96814;-70
2024/01/27 01:03:50;;;;;;;23.13;3.33;;;;;;;8.93;66.83;102248.69;4953573;28;99753;-69
2024/01/27 01:06:17;;;;;;;23.05;2.97;;;;;;;8.81;66.38;102251.38;4951724;28;97640;-70
2024/01/27 01:08:43;;;;;;;26.13;2.75;;;;;;;8.65;66.65;102249.72;4949032;28;97384;-69
2024/01/27 01:11:09;;;;;;;24.08;3.33;;;;;;;8.59;67.75;102249.72;4950972;28;97504;-70
2024/01/27 01:13:37;;;;;;;22.60;3.33;;;;;;;9.03;65.87;102262.72;4951083;28;99251;-69
2024/01/27 01:16:04;;;;;;;23.45;3.78;;;;;;;9.06;65.25;102266.19;4946460;28;99408;-69
2024/01/27 01:18:31;;;;;;;20.35;2.83;;;;;;;9.37;64.38;102263.41;4949222;28;96906;-70
2024/01/27 01:20:57;;;;;;;23.55;3.25;;;;;;;9.29;64.19;102258.16;4949994;28;97641;-70
2024/01/27 01:23:23;;;;;;;19.60;2.42;;;;;;;8.94;65.09;102265.38;4947810;28;99301;-70
2024/01/27 01:25:50;;;;;;;19.08;2.85;;;;;;;8.27;67.83;102257.69;4952643;28;97535;-69
2024/01/27 01:28:16;;;;;;;25.15;3.90;;;;;;;8.40;67.39;102265.56;4949356;28;97267;-70
2024/01/27 01:30:44;;;;;;;26.88;3.13;;;;;;;8.54;67.46;102277.81;4950196;28;97998;-69
2024/01/27 01:33:11;;;;;;;22.17;3.00;;;;;;;8.68;66.72;102270.75;4944234;28;99031;-70
2024/01/27 01:35:37;;;;;;;20.35;2.75;;;;;;;8.96;65.82;102282.97;4948901;28;99001;-70
2024/01/27 01:38:04;;;;;;;32.15;3.05;;;;;;;8.91;65.62;102276.84;4949728;28;99388;-69
2024/01/27 01:40:30;;;;;;;23.90;3.63;;;;;;;8.48;67.13;102268.19;4948898;28;96814;-69
2024/01/27 01:42:59;;;;;;;37.08;4.20;;;;;;;8.43;68.14;102269.97;4948004;28;99260;-69
2024/01/27 01:45:25;;;;;;;33.30;4.28;;;;;;;8.67;67.27;102263.72;4947287;28;98157;-70
2024/01/27 01:47:53;;;;;;;24.80;3.03;;;;;;;8.37;68.08;102264.72;4949436;28;97303;-70
2024/01/27 01:50:19;;;;;;;17.25;2.88;;;;;;;8.30;68.31;102263.84;4949346;28;97123;-70
2024/01/27 01:52:48;;;;;;;25.83;3.00;;;;;;;8.41;68.47;102277.00;4945233;28;98969;-70
2024/01/27 01:55:16;;;;;;;25.27;2.63;;;;;;;8.24;69.20;102273.50;4948076;28;98809;-69
2024/01/27 01:57:43;;;;;;;19.77;3.05;;;;;;;8.37;69.06;102265.59;4946013;28;97315;-70
2024/01/27 02:00:11;;;;;;;23.85;3.25;;;;;;;8.40;68.37;102277.91;4941996;28;96924;-70
2024/01/27 02:02:37;;;;;;;27.33;3.10;;;;;;;8.13;69.62;102270.00;4943837;28;100309;-70
2024/01/27 02:05:08;;;;;;;19.17;2.35;;;;;;;7.79;72.14;102279.66;4945321;28;99206;-69
2024/01/27 02:07:34;;;;;;;23.70;3.13;;;;;;;7.83;72.76;102286.69;4942406;28;96838;-69
2024/01/27 02:10:01;;;;;;;26.45;3.17;;;;;;;8.15;71.57;102289.28;4948244;28;96901;-69
2024/01/27 02:12:27;;;;;;;24.42;3.75;;;;;;;8.06;71.34;102287.56;4947393;28;99472;-70
2024/01/27 02:14:54;;;;;;;22.42;2.88;;;;;;;8.10;71.81;102307.72;4946716;28;99375;-69
2024/01/27 02:17:20;;;;;;;31.40;3.80;;;;;;;8.35;71.50;102308.59;4949734;28;97856;-69
2024/01/27 02:19:46;;;;;;;24.17;3.25;;;;;;;8.96;68.87;102293.50;4945099;28;97194;-69
2024/01/27 02:22:13;;;;;;;25.95;3.42;;;;;;;9.01;67.71;102318.09;4947120;28;99119;-69
2024/01/27 02:24:41;;;;;;;26.75;2.97;;;;;;;9.19;66.93;102314.47;4945891;28;99366;-69
2024/01/27 02:27:07;;;;;;;33.13;5.00;;;;;;;8.69;69.00;102319.97;4949251;28;101681;-69
2024/01/27 02:29:33;;;;;;;27.05;4.60;;;;;;;8.75;69.06;102312.91;4947420;28;97764;-69
2024/01/27 02:32:00;;;;;;;21.25;3.88;;;;;;;8.62;70.19;102305.03;4944409;28;99470;-69
2024/01/27 02:34:26;;;;;;;25.25;2.95;;;;;;;8.63;69.97;102310.31;4944145;28;99055;-69
2024/01/27 02:36:52;;;;;;;19.75;2.78;;;;;;;8.38;71.13;102335.84;4945223;28;97581;-69
2024/01/27 02:39:19;;;;;;;30.95;3.50;;;;;;;8.85;69.64;102340.13;4943793;28;96791;-69
2024/01/27 02:41:46;;;;;;;24.63;3.20;;;;;;;8.82;69.43;102326.94;4945335;28;99655;-69
2024/01/27 02:44:13;;;;;;;29.33;3.50;;;;;;;8.51;70.58;102338.44;4945062;28;97494;-69
2024/01/27 02:46:39;;;;;;;26.50;3.40;;;;;;;8.62;70.42;102326.13;4946977;28;96808;-69
2024/01/27 02:49:05;;;;;;;23.38;3.90;;;;;;;8.67;70.57;102334.88;4947549;28;97089;-69
2024/01/27 02:51:32;;;;;;;25.38;4.72;;;;;;;8.94;70.06;102333.94;4947757;28;101204;-69
2024/01/27 02:53:58;;;;;;;17.67;3.38;;;;;;;9.16;68.24;102343.53;4945802;28;98975;-69
2024/01/27 02:56:24;;;;;;;28.23;3.55;;;;;;;9.22;68.16;102339.97;4947117;28;96699;-69
2024/01/27 02:58:52;;;;;;;16.52;2.75;;;;;;;8.58;70.42;102327.91;4948440;28;97357;-69
2024/01/27 03:01:18;;;;;;;23.00;2.45;;;;;;;8.30;71.35;102326.16;4950530;28;99406;-69
2024/01/27 03:03:45;;;;;;;31.45;3.22;;;;;;;7.91;73.65;102342.84;4945349;28;98187;-68
2024/01/27 03:06:11;;;;;;;21.92;2.95;;;;;;;7.86;74.03;102342.84;4948122;28;96946;-68
2024/01/27 03:08:37;;;;;;;15.20;2.65;;;;;;;7.64;74.11;102348.06;4949077;28;98026;-68
2024/01/27 03:11:04;;;;;;;30.98;3.63;;;;;;;7.48;75.56;102350.63;4946194;28;98840;-68
2024/01/27 03:13:30;;;;;;;23.80;3.03;;;;;;;7.53;76.24;102353.31;4946129;28;99178;-68
2024/01/27 03:15:58;;;;;;;24.75;6.93;;;;;;;7.38;76.43;102354.13;4948736;28;97224;-68
2024/01/27 03:18:25;;;;;;;24.30;2.85;;;;;;;7.58;75.61;102355.06;4948230;28;97264;-69
2024/01/27 03:20:51;;;;;;;21.05;3.65;;;;;;;7.40;75.81;102365.53;4941863;28;99366;-69
2024/01/27 03:23:18;;;;;;;26.80;3.50;;;;;;;7.57;76.18;102366.47;4943262;28;98901;-69
2024/01/27 03:25:44;;;;;;;28.77;3.17;;;;;;;7.73;74.58;102361.25;4946105;28;98235;-68
2024/01/27 03:28:10;;;;;;;26.75;4.47;;;;;;;7.52;75.25;102360.31;4947580;28;96963;-69
2024/01/27 03:30:37;;;;;;;25.55;2.70;;;;;;;6.85;78.32;102371.41;4951373;28;98970;-69
2024/01/27 03:33:06;;;;;;;38.00;3.95;;;;;;;7.37;77.39;102372.53;4948145;28;99215;-69
2024/01/27 03:35:32;;;;;;;16.92;2.90;;;;;;;6.86;78.42;102357.41;4945025;28;97358;-68
2024/01/27 03:37:59;;;;;;;22.75;2.70;;;;;;;6.57;80.60;102370.34;4945761;28;96940;-69
2024/01/27 03:40:25;;;;;;;18.58;2.67;;;;;;;6.78;79.87;102366.13;4944033;28;99325;-69
2024/01/27 03:42:51;;;;;;;25.83;3.20;;;;;;;6.78;80.40;102374.00;4946999;28;98945;-69
2024/01/27 03:45:17;;;;;;;22.42;3.10;;;;;;;7.22;78.11;102364.59;4945633;28;96937;-69
2024/01/27 03:47:44;;;;;;;27.88;5.45;;;;;;;7.36;77.30;102352.34;4945945;28;97369;-69
2024/01/27 03:50:12;;;;;;;27.85;5.30;;;;;;;7.22;77.96;102370.72;4945729;28;98838;-69
2024/01/27 03:52:39;;;;;;;18.42;2.10;;;;;;;6.86;79.26;102360.91;4944251;28;98650;-69
2024/01/27 03:55:06;;;;;;;30.10;3.20;;;;;;;6.93;79.47;102372.34;4946772;28;97104;-69
2024/01/27 03:57:32;;;;;;;26.40;2.60;;;;;;;6.84;79.90;102369.66;4951658;28;97302;-69
2024/01/27 03:59:58;;;;;;;28.95;3.33;;;;;;;7.46;77.88;102372.56;4948581;28;98936;-69
2024/01/27 04:02:25;;;;;;;31.35;3.40;;;;;;;7.61;76.14;102373.47;4944902;28;99034;-68
2024/01/27 04:04:51;;;;;;;24.00;2.83;;;;;;;7.35;77.72;102383.03;4940582;28;96903;-69
2024/01/27 04:07:19;;;;;;;17.20;2.28;;;;;;;7.11;78.53;102385.56;4947721;28;96858;-69
2024/01/27 04:09:45;;;;;;;29.50;3.50;;;;;;;7.17;79.21;102385.59;4946684;28;100592;-69
2024/01/27 04:12:11;;;;;;;33.42;3.63;;;;;;;7.23;79.08;102388.25;4946767;28;98520;-69
2024/01/27 04:14:38;;;;;;;31.13;3.08;;;;;;;7.19;78.95;102392.63;4947972;28;97386;-69
2024/01/27 04:17:05;;;;;;;18.73;2.28;;;;;;;6.99;80.32;102401.28;4948442;28;97120;-70
2024/01/27 04:19:31;;;;;;;30.98;3.13;;;;;;;7.07;80.39;102402.22;4949385;28;99195;-71
2024/01/27 04:21:57;;;;;;;25.70;2.63;;;;;;;7.27;79.29;102418.09;4942315;28;99193;-70
2024/01/27 04:24:25;;;;;;;37.10;3.53;;;;;;;7.18;79.77;102413.66;4947141;28;97320;-70
2024/01/27 04:26:51;;;;;;;22.25;3.40;;;;;;;7.32;79.64;102409.34;4949499;28;97575;-69
2024/01/27 04:29:17;;;;;;;25.35;3.40;;;;;;;7.26;79.52;102425.09;4949497;28;99326;-70
2024/01/27 04:31:44;;;;;;;22.65;2.78;;;;;;;7.52;78.52;102428.72;4950031;28;98757;-68
2024/01/27 04:34:11;;;;;;;29.70;3.17;;;;;;;7.38;79.17;102433.03;4950339;28;97278;-70
2024/01/27 04:36:37;;;;;;;23.90;3.72;;;;;;;7.55;77.86;102433.97;4950046;28;97424;-70
2024/01/27 04:39:04;;;;;;;30.38;3.40;;;;;;;7.43;78.91;102441.81;4952760;28;98852;-70
2024/01/27 04:41:31;;;;;;;32.10;4.45;;;;;;;7.34;79.44;102447.03;4946756;28;104029;-70
2024/01/27 04:44:00;;;;;;;27.25;3.63;;;;;;;7.91;77.08;102453.38;4948129;28;96838;-70
2024/01/27 04:46:26;;;;;;;31.33;3.38;;;;;;;8.00;76.30;102448.16;4949853;28;97689;-70
2024/01/27 04:48:52;;;;;;;30.70;4.35;;;;;;;7.84;76.27;102459.50;4948323;28;99066;-70
2024/01/27 04:51:19;;;;;;;25.80;3.17;;;;;;;7.67;78.42;102461.22;4947395;28;98808;-70
2024/01/27 04:53:45;;;;;;;25.65;3.08;;;;;;;7.47;79.01;102469.91;4949076;28;96926;-69
2024/01/27 04:56:12;;;;;;;31.20;4.55;;;;;;;7.73;78.11;102470.00;4950213;28;96799;-70
2024/01/27 04:58:40;;;;;;;27.02;4.22;;;;;;;7.92;77.56;102482.34;4948445;28;101190;-70
2024/01/27 05:01:07;;;;;;;24.65;3.58;;;;;;;8.22;75.92;102481.53;4950133;28;98783;-70
2024/01/27 05:03:36;;;;;;;26.90;3.78;;;;;;;7.77;78.07;102486.66;4948844;28;96885;-70
2024/01/27 05:06:03;;;;;;;29.55;4.00;;;;;;;7.46;79.16;102499.69;4946779;28;97417;-70
2024/01/27 05:08:29;;;;;;;22.63;3.50;;;;;;;7.95;77.81;102492.88;4948456;28;99084;-69
2024/01/27 05:10:55;;;;;;;30.60;3.47;;;;;;;8.07;77.24;102499.06;4950298;28;98909;-70
2024/01/27 05:13:22;;;;;;;22.13;3.55;;;;;;;8.65;74.58;102502.69;4948134;28;101236;-69
2024/01/27 05:15:50;;;;;;;30.00;3.72;;;;;;;8.71;73.54;102503.56;4951738;28;96945;-69
2024/01/27 05:18:16;;;;;;;24.75;3.42;;;;;;;8.27;75.26;102498.19;4946921;28;98864;-69
2024/01/27 05:20:42;;;;;;;26.38;4.50;;;;;;;8.07;76.89;102512.22;4950336;28;98119;-69
2024/01/27 05:23:10;;;;;;;28.38;3.63;;;;;;;7.48;79.59;102520.75;4945533;28;97479;-69
2024/01/27 05:25:36;;;;;;;35.13;4.60;;;;;;;7.68;79.38;102518.22;4948125;28;96944;-69
2024/01/27 05:28:02;;;;;;;32.70;3.28;;;;;;;7.57;79.26;102511.16;4951425;28;99137;-70
2024/01/27 05:30:28;;;;;;;24.15;3.90;;;;;;;7.41;80.68;102511.97;4952930;28;99063;-69
2024/01/27 05:32:56;;;;;;;22.42;3.15;;;;;;;7.64;78.83;102513.81;4949467;28;97839;-69
2024/01/27 05:35:22;;;;;;;23.23;2.42;;;;;;;7.08;82.13;102517.00;4952171;28;97495;-70
2024/01/27 05:37:50;;;;;;;31.20;4.13;;;;;;;7.01;82.66;102518.72;4950513;28;101211;-69
2024/01/27 05:40:16;;;;;;;26.25;4.03;;;;;;;6.75;84.10;102533.41;4948425;28;99360;-70
2024/01/27 05:42:44;;;;;;;31.60;4.20;;;;;;;7.38;82.27;102514.56;4942594;28;97237;-69
2024/01/27 05:45:11;;;;;;;24.80;3.13;;;;;;;7.40;81.17;102518.09;4948888;28;97057;-69
2024/01/27 05:47:37;;;;;;;33.03;5.28;;;;;;;7.19;82.25;102531.09;4947068;28;101579;-69
2024/01/27 05:50:07;;;;;;;24.45;3.03;;;;;;;7.78;80.00;102522.63;4947213;28;98336;-69
2024/01/27 05:52:34;;;;;;;24.98;4.00;;;;;;;7.77;79.78;102528.78;4946980;28;99070;-69
2024/01/27 05:55:00;;;;;;;28.60;5.05;;;;;;;8.10;78.00;102522.75;4948866;28;97621;-69
2024/01/27 05:57:26;;;;;;;23.27;3.70;;;;;;;8.20;77.62;102535.09;4949496;28;99151;-69
2024/01/27 05:59:54;;;;;;;26.33;3.90;;;;;;;7.99;78.23;102533.25;4949364;28;98939;-69
2024/01/27 06:02:20;;;;;;;23.65;2.53;;;;;;;8.39;76.73;102532.53;4951554;28;99012;-69
2024/01/27 06:04:46;;;;;;;22.10;3.50;;;;;;;8.26;76.70;102535.09;4948811;28;97525;-69
2024/01/27 06:07:14;;;;;;;24.17;3.05;;;;;;;8.58;75.89;102535.19;4946075;28;99018;-70
2024/01/27 06:09:40;;;;;;;28.48;4.38;;;;;;;8.55;74.90;102543.06;4948966;28;99113;-69
2024/01/27 06:12:07;;;;;;;27.05;3.83;;;;;;;8.64;75.00;102545.72;4949346;28;97357;-68
2024/01/27 06:14:33;;;;;;;20.90;3.15;;;;;;;8.51;75.31;102541.31;4950358;28;97217;-69
2024/01/27 06:17:00;;;;;;;25.75;3.70;;;;;;;8.46;75.72;102549.22;4952405;28;98090;-69
2024/01/27 06:19:26;;;;;;;22.10;3.38;;;;;;;8.64;74.87;102551.00;4947935;28;98769;-70
2024/01/27 06:21:53;;;;;;;24.05;3.45;;;;;;;8.70;74.45;102545.72;4949181;28;97161;-69
2024/01/27 06:24:21;;;;;;;27.30;3.45;;;;;;;8.49;75.46;102553.59;4947530;28;97434;-69
2024/01/27 06:26:47;;;;;;;25.98;3.50;;;;;;;8.55;75.40;102543.06;4949884;28;99257;-69
2024/01/27 06:29:13;;;;;;;26.80;3.50;;;;;;;8.42;76.27;102554.47;4951702;28;98988;-69
2024/01/27 06:31:40;;;;;;;27.05;4.47;;;;;;;8.58;75.68;102565.06;4949332;28;97799;-69
2024/01/27 06:34:06;;;;;;;34.05;3.58;;;;;;;8.47;76.50;102564.13;4947945;28;96866;-69
2024/01/27 06:36:33;;;;;;;40.85;3.40;;;;;;;8.65;75.52;102552.75;4948972;28;99388;-69
2024/01/27 06:38:59;;;;;;;32.50;3.22;;;;;;;8.87;74.66;102567.69;4950465;28;101374;-70
2024/01/27 06:41:27;;;;;;;36.10;4.75;;;;;;;9.07;73.58;102571.22;4946562;28;96798;-70
2024/01/27 06:43:53;;;;;;;29.52;3.38;;;;;;;8.68;75.20;102573.81;4948907;28;98088;-69
2024/01/27 06:46:20;;;;;;;21.77;3.88;;;;;;;8.86;74.95;102583.53;4948016;28;98989;-70
2024/01/27 06:48:46;;;;;;;40.00;4.03;;;;;;;8.89;74.77;102589.66;4942409;28;100636;-69
2024/01/27 06:51:13;;;;;;;21.70;3.20;;;;;;;8.57;76.06;102597.53;4945572;28;97174;-69
2024/01/27 06:53:39;;;;;;;29.13;3.17;;;;;;;8.79;74.92;102598.47;4947435;28;97155;-69
2024/01/27 06:56:06;;;;;;;21.17;2.70;;;;;;;9.19;73.68;102607.25;4948443;28;99112;-69
2024/01/27 06:58:34;;;;;;;27.98;3.97;;;;;;;8.86;74.10;102608.09;4947778;28;99048;-69
2024/01/27 07:01:00;;;;;;;27.10;4.28;;;;;;;8.53;76.20;102618.63;4948427;28;97267;-69
2024/01/27 07:03:27;;;;;;;28.27;3.30;;;;;;;9.02;74.04;102609.00;4946746;28;97620;-70
2024/01/27 07:05:54;;;;;;;18.52;2.95;;;;;;;8.67;75.23;102619.50;4947641;28;99554;-70
2024/01/27 07:08:20;;;;;;;22.40;3.03;;;;;;;8.73;75.14;102609.84;4945712;28;98805;-70
2024/01/27 07:10:46;;;;;;;33.15;3.30;;;;;;;8.76;75.18;102630.97;4949612;28;98167;-70
2024/01/27 07:13:13;;;;;;;28.65;4.10;;;;;;;9.07;74.45;102631.88;4943841;28;97035;-69
2024/01/27 07:15:40;;;;;;;26.73;3.55;;;;;;;9.45;72.37;102646.84;4948323;28;101143;-70
2024/01/27 07:18:07;;;;;;;25.45;3.40;;;;;;;9.31;72.98;102644.19;4944667;28;98889;-70
2024/01/27 07:20:33;;;;;;;28.95;3.30;;;;;;;9.46;72.59;102648.56;4946327;28;97520;-69
2024/01/27 07:23:00;;;;;;;24.35;3.35;;;;;;;9.42;72.16;102652.09;4942813;28;98608;-70
2024/01/27 07:25:28;;;;;;;21.30;3.38;;;;;;;9.33;72.43;102647.69;4950228;28;99051;-70
2024/01/27 07:27:55;;;;;;;24.42;3.00;;;;;;;8.98;73.70;102649.44;4948298;28;98800;-69
2024/01/27 07:30:21;;;;;;;25.58;3.25;;;;;;;9.17;73.54;102665.28;4948494;28;97078;-70
2024/01/27 07:32:49;;;;;;;25.33;3.65;;;;;;;9.42;72.32;102658.25;4944561;28;97431;-70
2024/01/27 07:35:15;;;;;;;26.70;3.58;;;;;;;9.23;72.63;102659.13;4950533;28;99035;-70
2024/01/27 07:37:43;;;;;;;23.40;3.55;;;;;;;9.47;72.38;102666.16;4947819;28;98828;-70
2024/01/27 07:40:10;;;;;;;29.50;4.18;;;;;;;9.57;71.51;102673.22;4952171;28;96797;-70
2024/01/27 07:42:37;;;;;;;28.55;4.25;;;;;;;9.06;73.46;102674.94;4946827;28;96896;-70
2024/01/27 07:45:03;;;;;;;24.05;2.58;;;;;;;9.19;72.72;102681.09;4951589;28;98329;-70
2024/01/27 07:47:30;;;;;;;27.85;4.03;;;;;;;9.18;73.04;102677.63;4951583;28;99435;-70
2024/01/27 07:49:57;;;;;;;24.98;3.40;;;;;;;8.72;75.47;102675.78;4948412;28;97956;-70
2024/01/27 07:52:24;;;;;;;33.85;4.63;;;;;;;8.77;75.54;102688.06;4950622;28;96879;-70
2024/01/27 07:54:50;;;;;;;24.85;3.10;;;;;;;9.03;74.45;102680.22;4947812;28;98937;-70
2024/01/27 07:57:16;;;;;;;27.73;3.03;;;;;;;9.07;74.55;102689.88;4949394;28;98884;-69
2024/01/27 07:59:43;;;;;;;26.17;4.15;;;;;;;9.09;73.88;102697.81;4949443;28;96955;-70
2024/01/27 08:02:09;;;;;;;22.50;3.35;;;;;;;9.24;73.49;102699.59;4945853;28;96938;-69
2024/01/27 08:04:35;;;;;;;23.35;3.67;;;;;;;9.29;73.00;102709.25;4945730;28;99034;-69
2024/01/27 08:07:09;;;;;;;24.83;3.20;;;;;;;9.45;72.19;102715.44;4949078;28;97540;-70
2024/01/27 08:09:35;;;;;;;29.55;3.95;;;;;;;9.65;71.71;102711.00;4944765;28;97660;-70
2024/01/27 08:12:02;;;;;;;20.58;2.63;;;;;;;9.68;71.47;102713.66;4952115;28;97281;-69
2024/01/27 08:14:29;;;;;;;18.92;2.90;;;;;;;9.36;72.11;102710.16;4949363;28;101450;-69
2024/01/27 08:16:56;;;;;;;29.25;3.38;;;;;;;9.33;72.60;102708.38;4953879;28;99297;-69
2024/01/27 08:19:22;;;;;;;33.92;3.88;;;;;;;9.42;72.76;102712.78;4950054;28;97319;-69
2024/01/27 08:21:49;;;;;;;31.90;4.15;;;;;;;9.69;71.41;102719.81;4949943;28;96762;-69
2024/01/27 08:24:16;;;;;;;26.88;3.60;;;;;;;9.67;70.71;102722.47;4946861;28;99397;-69
2024/01/27 08:26:43;;;;;;;31.83;4.75;;;;;;;9.90;70.35;102718.06;4946602;28;98986;-68
2024/01/27 08:29:09;;;;;;;27.88;3.83;;;;;;;9.63;70.78;102728.63;4948815;28;100069;-68
2024/01/27 08:31:37;;;;;;;27.58;3.63;;;;;;;9.98;69.55;102728.56;4945737;28;97391;-68
2024/01/27 08:34:04;;;;;;;24.60;3.85;;;;;;;10.08;69.25;102722.41;4953656;28;99848;-68
2024/01/27 08:36:31;;;;;;;31.95;3.75;;;;;;;9.97;70.14;102740.06;4947979;28;98662;-69
2024/01/27 08:38:57;;;;;;;21.17;3.42;;;;;;;10.05;69.20;102737.38;4942195;28;97497;-68
2024/01/27 08:41:25;;;;;;;24.63;3.55;;;;;;;9.93;69.60;102747.06;4948768;28;96963;-68
2024/01/27 08:43:51;;;;;;;20.10;2.75;;;;;;;10.21;68.49;102745.31;4947223;28;99307;-68
2024/01/27 08:46:19;;;;;;;26.58;2.88;;;;;;;9.57;71.06;102755.03;4948527;28;101648;-68
2024/01/27 08:48:46;;;;;;;27.00;4.60;;;;;;;9.74;70.81;102761.19;4950742;28;97928;-68
2024/01/27 08:51:12;;;;;;;28.40;3.42;;;;;;;10.08;69.51;102751.47;4948063;28;97389;-68
2024/01/27 08:53:39;;;;;;;23.00;2.67;;;;;;;9.49;70.98;102744.47;4946290;28;99838;-68
2024/01/27 08:56:06;;;;;;;27.52;3.45;;;;;;;9.25;72.94;102751.47;4945616;28;99175;-69
2024/01/27 08:58:33;;;;;;;18.13;3.30;;;;;;;9.82;71.29;102742.69;4949226;28;97234;-70
2024/01/27 09:01:05;;;;;;;22.52;3.55;;;;;;;10.33;69.63;102762.88;4948596;28;96759;-70
2024/01/27 09:03:31;;;;;;;23.95;3.00;;;;;;;10.58;67.36;102755.75;4947188;28;99221;-69
2024/01/27 09:05:58;;;;;;;23.35;3.30;;;;;;;10.47;67.36;102771.66;4949365;28;98170;-69
2024/01/27 09:08:24;;;;;;;23.38;3.10;;;;;;;9.72;70.57;102762.94;4948349;28;98506;-71
2024/01/27 09:10:50;;;;;;;27.20;3.47;;;;;;;9.90;70.10;102768.22;4946601;28;97539;-70
2024/01/27 09:13:17;;;;;;;23.42;3.25;;;;;;;10.15;69.19;102768.19;4947947;28;99643;-70
2024/01/27 09:15:44;;;;;;;33.72;4.32;;;;;;;9.93;70.06;102773.50;4947721;28;100142;-69
2024/01/27 09:18:11;;;;;;;26.30;3.53;;;;;;;9.99;69.73;102770.84;4948966;28;96839;-70
2024/01/27 09:20:37;;;;;;;26.98;2.92;;;;;;;10.02;69.20;102772.59;4939573;28;100548;-70
2024/01/27 09:23:04;;;;;;;27.23;2.83;;;;;;;10.05;68.79;102772.59;4940653;28;97951;-70
2024/01/27 09:25:31;;;;;;;17.08;2.45;;;;;;;9.85;69.76;102775.25;4949022;28;99379;-70
2024/01/27 09:28:00;;;;;;;20.75;3.03;;;;;;;9.90;69.66;102773.50;4946002;28;97540;-70
2024/01/27 09:30:27;;;;;;;28.90;3.58;;;;;;;10.07;69.66;102781.41;4948549;28;97171;-70
2024/01/27 09:32:54;;;;;;;38.47;4.78;;;;;;;10.26;68.53;102790.22;4945298;28;99738;-70
2024/01/27 09:35:21;;;;;;;24.63;3.25;;;;;;;9.88;69.54;102793.75;4947725;28;99442;-70
2024/01/27 09:37:47;;;;;;;26.17;4.32;;;;;;;10.13;69.21;102791.06;4944555;28;99278;-70
2024/01/27 09:40:14;;;;;;;22.63;3.25;;;;;;;9.82;69.61;102787.59;4946502;28;98878;-70
2024/01/27 09:42:48;;;;;;;22.67;3.38;;;;;;;10.28;69.09;102801.66;4941284;28;97805;-71
2024/01/27 09:45:14;;;;;;;22.80;2.80;;;;;;;10.44;67.67;102798.09;4940562;28;99520;-69
2024/01/27 09:47:42;;;;;;;19.75;3.55;;;;;;;10.53;67.61;102805.13;4948822;28;97277;-69
2024/01/27 09:50:12;;;;;;;27.75;3.50;;;;;;;10.48;66.74;102799.84;4943371;28;97118;-70
2024/01/27 09:52:38;;;;;;;22.17;3.03;;;;;;;10.42;68.08;102801.63;4940345;28;99187;-70
2024/01/27 09:55:05;;;;;;;24.27;3.60;;;;;;;10.53;66.82;102798.06;4943663;28;98805;-71
2024/01/27 09:57:32;;;;;;;23.40;2.72;;;;;;;10.22;67.52;102797.28;4940849;28;97215;-70
2024/01/27 10:00:00;;;;;;;26.55;2.95;;;;;;;9.55;71.19;102815.72;4942875;28;97158;-70
2024/01/27 10:02:27;;;;;;;28.13;3.33;;;;;;;9.47;71.36;102816.56;4937025;28;98959;-70
2024/01/27 10:04:55;;;;;;;21.85;3.38;;;;;;;10.10;69.55;102799.91;4945215;28;98832;-70
2024/01/27 10:07:24;;;;;;;18.23;3.63;;;;;;;10.62;67.28;102816.56;4938243;28;99977;-70
2024/01/27 10:09:50;;;;;;;16.42;2.45;;;;;;;10.38;66.45;102817.50;4946286;28;97774;-70
2024/01/27 10:12:18;;;;;;;23.90;3.80;;;;;;;10.90;66.23;102824.38;4939950;28;99444;-70
2024/01/27 10:14:44;;;;;;;24.17;4.18;;;;;;;10.56;66.94;102821.00;4943483;28;99020;-70
2024/01/27 10:17:13;;;;;;;29.58;3.00;;;;;;;10.84;65.86;102821.75;4943774;28;98956;-70
2024/01/27 10:19:39;;;;;;;24.33;2.95;;;;;;;10.40;66.45;102817.50;4942917;28;97231;-70
2024/01/27 10:22:05;;;;;;;30.52;3.65;;;;;;;10.73;65.77;102824.44;4943038;28;102301;-70
2024/01/27 10:24:35;;;;;;;19.13;3.08;;;;;;;11.15;64.52;102810.19;4945566;28;98902;-70
2024/01/27 10:27:02;;;;;;;19.35;3.10;;;;;;;11.05;65.56;102822.56;4947906;28;97487;-70
2024/01/27 10:29:28;;;;;;;25.30;3.17;;;;;;;11.28;64.48;102814.53;4950542;28;96979;-70
2024/01/27 10:31:55;;;;;;;24.65;3.45;;;;;;;11.71;62.62;102816.88;4944285;28;98913;-69
2024/01/27 10:34:21;;;;;;;27.83;3.22;;;;;;;10.81;64.90;102832.38;4949573;28;98772;-70
2024/01/27 10:36:47;;;;;;;32.00;3.97;;;;;;;10.63;66.69;102831.50;4949984;28;97019;-70
2024/01/27 10:39:20;;;;;;;31.08;3.88;;;;;;;10.99;65.46;102829.66;4948244;28;98883;-70
2024/01/27 10:41:48;;;;;;;26.63;2.97;;;;;;;10.79;65.75;102838.53;4942380;28;102467;-70
2024/01/27 10:44:16;;;;;;;19.35;3.05;;;;;;;10.86;65.84;102833.22;4943887;28;99919;-71
2024/01/27 10:46:45;;;;;;;30.02;4.55;;;;;;;10.64;66.67;102837.69;4947593;28;97918;-70
2024/01/27 10:49:14;;;;;;;21.55;3.20;;;;;;;10.78;66.43;102846.47;4950213;28;97767;-70
2024/01/27 10:51:44;;;;;;;29.20;4.32;;;;;;;10.88;66.20;102842.94;4940286;28;98433;-70
2024/01/27 10:54:16;;;;;;;21.45;3.35;;;;;;;10.66;67.33;102842.09;4942547;28;98852;-70
2024/01/27 10:56:44;;;;;;;33.55;4.13;;;;;;;10.22;69.92;102842.19;4942557;28;97891;-69
2024/01/27 10:59:12;;;;;;;26.45;3.80;;;;;;;10.56;68.29;102839.50;4946217;28;96963;-69
2024/01/27 11:01:40;;;;;;;23.05;3.30;;;;;;;10.41;68.97;102839.50;4941237;28;99079;-70
2024/01/27 11:04:07;;;;;;;30.85;4.15;;;;;;;10.82;67.62;102844.72;4947306;28;99565;-70
2024/01/27 11:06:35;;;;;;;30.20;3.90;;;;;;;10.39;69.25;102843.03;4948374;28;96865;-70
2024/01/27 11:09:03;;;;;;;21.83;3.97;;;;;;;10.55;68.18;102843.91;4945657;28;98309;-70
2024/01/27 11:11:30;;;;;;;25.88;3.50;;;;;;;10.74;68.33;102848.25;4943822;28;101843;-70
2024/01/27 11:13:56;;;;;;;24.35;3.78;;;;;;;11.15;65.92;102845.47;4942900;28;98924;-70
2024/01/27 11:16:24;;;;;;;23.85;3.63;;;;;;;11.09;65.32;102853.41;4947228;28;96940;-70
2024/01/27 11:18:51;;;;;;;24.45;3.40;;;;;;;11.38;64.44;102847.09;4946259;28;97320;-71
2024/01/27 11:21:19;;;;;;;22.00;4.05;;;;;;;11.46;63.86;102848.81;4941774;28;99308;-71